createdAt,value
2019-06-27T00:00:23.031Z,26.20
2019-06-27T00:02:49.788Z,26.10
2019-06-27T00:05:16.596Z,26.10
2019-06-27T00:07:43.416Z,26.00
2019-06-27T00:10:10.643Z,26.00
2019-06-27T00:12:37.349Z,25.90
2019-06-27T00:15:04.296Z,25.90
2019-06-27T00:17:31.101Z,25.80
2019-06-27T00:19:58.032Z,25.80
2019-06-27T00:22:24.752Z,25.80
2019-06-27T00:24:51.452Z,25.70
2019-06-27T00:27:18.298Z,25.70
2019-06-27T00:29:45.188Z,25.60
2019-06-27T00:32:11.953Z,25.60
2019-06-27T00:34:38.669Z,25.50
2019-06-27T00:37:05.384Z,25.50
2019-06-27T00:39:32.108Z,25.40
2019-06-27T00:41:58.819Z,25.30
2019-06-27T00:44:25.685Z,25.30
2019-06-27T00:46:52.542Z,25.30
2019-06-27T00:49:19.661Z,25.30
2019-06-27T00:51:46.611Z,25.20
2019-06-27T00:54:13.404Z,25.10
2019-06-27T00:56:40.254Z,25.10
2019-06-27T00:59:07.078Z,25.00
2019-06-27T01:01:33.906Z,25.00
2019-06-27T01:04:00.612Z,25.00
2019-06-27T01:06:27.941Z,24.90
2019-06-27T01:08:54.887Z,24.90
2019-06-27T01:11:21.692Z,24.90
2019-06-27T01:13:48.404Z,24.90
2019-06-27T01:16:15.261Z,24.80
2019-06-27T01:18:42.083Z,24.70
2019-06-27T01:21:09.013Z,24.70
2019-06-27T01:23:35.753Z,24.70
2019-06-27T01:26:02.674Z,24.70
2019-06-27T01:28:29.403Z,24.60
2019-06-27T01:30:56.113Z,24.60
2019-06-27T01:33:22.832Z,24.60
2019-06-27T01:35:49.783Z,24.60
2019-06-27T01:38:16.785Z,24.60
2019-06-27T01:40:43.721Z,24.50
2019-06-27T01:43:10.432Z,24.40
2019-06-27T01:45:45.043Z,24.40
2019-06-27T01:48:11.773Z,24.30
2019-06-27T01:50:38.486Z,24.30
2019-06-27T01:53:05.265Z,24.20
2019-06-27T01:55:32.129Z,24.30
2019-06-27T01:57:59.098Z,24.20
2019-06-27T02:00:26.341Z,24.20
2019-06-27T02:02:53.294Z,24.30
2019-06-27T02:05:20.225Z,24.20
2019-06-27T02:07:47.458Z,24.20
2019-06-27T02:10:14.724Z,24.20
2019-06-27T02:12:41.454Z,24.20
2019-06-27T02:15:08.902Z,24.00
2019-06-27T02:17:35.713Z,24.00
2019-06-27T02:20:03.046Z,24.00
2019-06-27T02:22:29.861Z,24.00
2019-06-27T02:24:56.608Z,24.00
2019-06-27T02:27:23.441Z,23.90
2019-06-27T02:29:50.188Z,23.90
2019-06-27T02:32:16.889Z,23.90
2019-06-27T02:34:43.613Z,23.90
2019-06-27T02:37:10.366Z,23.80
2019-06-27T02:39:37.287Z,23.80
2019-06-27T02:42:04.206Z,23.70
2019-06-27T02:44:30.926Z,23.70
2019-06-27T02:46:57.764Z,23.60
2019-06-27T02:49:24.503Z,23.50
2019-06-27T02:51:51.252Z,23.40
2019-06-27T02:54:17.990Z,23.40
2019-06-27T02:56:44.707Z,23.30
2019-06-27T02:59:11.519Z,23.20
2019-06-27T03:01:38.347Z,23.20
2019-06-27T03:04:05.128Z,23.10
2019-06-27T03:06:31.846Z,23.10
2019-06-27T03:08:58.793Z,23.10
2019-06-27T03:11:25.506Z,23.10
2019-06-27T03:13:52.336Z,23.00
2019-06-27T03:16:19.050Z,23.00
2019-06-27T03:18:45.771Z,23.00
2019-06-27T03:21:12.471Z,22.90
2019-06-27T03:23:39.426Z,22.90
2019-06-27T03:26:06.113Z,22.80
2019-06-27T03:28:50.558Z,22.80
2019-06-27T03:31:01.745Z,22.80
2019-06-27T03:33:28.654Z,22.70
2019-06-27T03:35:55.421Z,22.70
2019-06-27T03:38:22.366Z,22.70
2019-06-27T03:40:49.281Z,22.60
2019-06-27T03:43:16.222Z,22.60
2019-06-27T03:45:43.058Z,22.60
2019-06-27T03:48:09.863Z,22.60
2019-06-27T03:50:36.699Z,22.50
2019-06-27T03:53:03.392Z,22.50
2019-06-27T03:55:30.219Z,22.50
2019-06-27T03:57:56.949Z,22.50
2019-06-27T04:00:30.630Z,22.40
2019-06-27T04:02:57.541Z,22.40
2019-06-27T04:05:24.251Z,22.50
2019-06-27T04:07:51.094Z,22.50
2019-06-27T04:10:18.073Z,22.40
2019-06-27T04:12:45.028Z,22.50
2019-06-27T04:15:11.942Z,22.40
2019-06-27T04:17:38.677Z,22.40
2019-06-27T04:20:05.797Z,22.50
2019-06-27T04:22:32.716Z,22.40
2019-06-27T04:24:59.534Z,22.40
2019-06-27T04:27:26.229Z,22.50
2019-06-27T04:29:53.016Z,22.50
2019-06-27T04:32:19.834Z,22.50
2019-06-27T04:34:46.590Z,22.50
2019-06-27T04:37:13.509Z,22.60
2019-06-27T04:39:40.226Z,22.60
2019-06-27T04:42:06.953Z,22.50
2019-06-27T04:44:33.809Z,22.60
2019-06-27T04:47:00.541Z,22.60
2019-06-27T04:49:27.241Z,22.60
2019-06-27T04:51:54.004Z,22.60
2019-06-27T04:54:20.844Z,22.70
2019-06-27T04:56:47.566Z,22.80
2019-06-27T04:59:14.318Z,22.80
2019-06-27T05:01:41.018Z,22.80
2019-06-27T05:04:07.825Z,22.80
2019-06-27T05:06:34.650Z,23.00
2019-06-27T05:09:01.371Z,22.90
2019-06-27T05:11:28.365Z,22.90
2019-06-27T05:13:55.273Z,22.80
2019-06-27T05:16:22.102Z,22.90
2019-06-27T05:18:48.874Z,22.90
2019-06-27T05:21:15.778Z,23.00
2019-06-27T05:23:42.496Z,23.00
2019-06-27T05:26:09.229Z,23.00
2019-06-27T05:28:36.028Z,23.10
2019-06-27T05:31:02.877Z,23.20
2019-06-27T05:33:29.620Z,23.30
2019-06-27T05:35:56.353Z,23.30
2019-06-27T05:38:23.071Z,23.60
2019-06-27T05:40:49.954Z,23.70
2019-06-27T05:43:16.675Z,23.80
2019-06-27T05:45:43.433Z,24.00
2019-06-27T05:48:10.267Z,24.10
2019-06-27T05:50:36.967Z,24.00
2019-06-27T05:53:03.704Z,24.10
2019-06-27T05:55:31.971Z,24.30
2019-06-27T05:57:58.710Z,24.10
2019-06-27T06:00:28.813Z,23.90
2019-06-27T06:02:54.136Z,24.10
2019-06-27T06:05:20.984Z,24.60
2019-06-27T06:07:47.767Z,25.20
2019-06-27T06:10:14.784Z,25.80
2019-06-27T06:12:41.524Z,26.00
2019-06-27T06:15:08.471Z,26.00
2019-06-27T06:17:35.399Z,26.00
2019-06-27T06:20:02.178Z,26.40
2019-06-27T06:22:28.904Z,26.60
2019-06-27T06:24:58.138Z,26.80
2019-06-27T06:27:24.358Z,27.10
2019-06-27T06:29:51.277Z,27.20
2019-06-27T06:32:18.149Z,27.40
2019-06-27T06:34:44.869Z,27.40
2019-06-27T06:37:11.731Z,27.00
2019-06-27T06:39:38.609Z,26.60
2019-06-27T06:42:05.392Z,26.80
2019-06-27T06:44:32.127Z,27.00
2019-06-27T06:46:58.951Z,27.30
2019-06-27T06:49:26.205Z,27.60
2019-06-27T06:51:53.065Z,27.70
2019-06-27T06:54:20.085Z,28.20
2019-06-27T06:56:46.829Z,28.10
2019-06-27T06:59:13.716Z,28.10
2019-06-27T07:01:40.556Z,28.00
2019-06-27T07:04:07.301Z,28.00
2019-06-27T07:06:35.216Z,27.90
2019-06-27T07:09:02.252Z,28.10
2019-06-27T07:11:28.998Z,28.20
2019-06-27T07:13:55.732Z,28.40
2019-06-27T07:16:22.709Z,28.90
2019-06-27T07:18:49.408Z,29.10
2019-06-27T07:21:16.136Z,29.00
2019-06-27T07:23:42.923Z,28.90
2019-06-27T07:26:09.631Z,29.10
2019-06-27T07:28:36.530Z,29.00
2019-06-27T07:31:16.908Z,28.90
2019-06-27T07:33:32.505Z,29.20
2019-06-27T07:35:59.373Z,29.20
2019-06-27T07:38:26.437Z,29.20
2019-06-27T07:40:53.179Z,29.40
2019-06-27T07:43:19.930Z,29.50
2019-06-27T07:45:46.967Z,29.30
2019-06-27T07:48:13.683Z,29.40
2019-06-27T07:50:40.481Z,29.40
2019-06-27T07:53:07.373Z,29.70
2019-06-27T07:55:34.338Z,29.80
2019-06-27T07:58:01.264Z,30.00
2019-06-27T08:00:28.193Z,30.00
2019-06-27T08:02:54.949Z,29.90
2019-06-27T08:05:21.948Z,29.90
2019-06-27T08:07:48.923Z,30.10
2019-06-27T08:10:16.018Z,30.20
2019-06-27T08:12:42.976Z,30.40
2019-06-27T08:15:10.394Z,30.60
2019-06-27T08:17:37.116Z,30.10
2019-06-27T08:20:04.406Z,30.30
2019-06-27T08:22:31.237Z,30.30
2019-06-27T08:24:58.053Z,30.20
2019-06-27T08:27:24.779Z,30.00
2019-06-27T08:29:54.431Z,30.20
2019-06-27T08:32:21.118Z,30.30
2019-06-27T08:34:47.955Z,30.70
2019-06-27T08:37:14.664Z,31.00
2019-06-27T08:39:41.635Z,31.30
2019-06-27T08:42:08.399Z,31.40
2019-06-27T08:44:35.258Z,31.30
2019-06-27T08:47:02.212Z,31.60
2019-06-27T08:49:28.941Z,31.60
2019-06-27T08:51:55.647Z,31.70
2019-06-27T08:54:22.412Z,31.30
2019-06-27T08:56:49.418Z,31.70
2019-06-27T08:59:16.156Z,31.60
2019-06-27T09:01:42.856Z,31.80
2019-06-27T09:04:09.886Z,32.20
2019-06-27T09:06:37.161Z,32.70
2019-06-27T09:09:04.837Z,32.40
2019-06-27T09:11:35.558Z,31.70
2019-06-27T09:14:00.556Z,31.50
2019-06-27T09:16:27.347Z,31.60
2019-06-27T09:18:54.063Z,31.60
2019-06-27T09:21:20.868Z,31.70
2019-06-27T09:23:47.664Z,32.10
2019-06-27T09:26:14.488Z,31.90
2019-06-27T09:28:41.248Z,31.70
2019-06-27T09:31:08.072Z,32.10
2019-06-27T09:33:34.779Z,31.90
2019-06-27T09:36:01.666Z,32.30
2019-06-27T09:38:28.399Z,32.30
2019-06-27T09:40:55.100Z,32.80
2019-06-27T09:43:22.032Z,32.80
2019-06-27T09:45:48.905Z,32.70
2019-06-27T09:48:15.684Z,32.80
2019-06-27T09:50:42.980Z,32.90
2019-06-27T09:53:09.699Z,32.50
2019-06-27T09:55:36.408Z,32.40
2019-06-27T09:58:04.442Z,32.20
2019-06-27T10:00:31.264Z,32.10
2019-06-27T10:02:58.171Z,32.30
2019-06-27T10:05:25.294Z,32.40
2019-06-27T10:07:52.220Z,32.50
2019-06-27T10:10:19.367Z,32.50
2019-06-27T10:12:47.280Z,32.50
2019-06-27T10:15:14.420Z,32.60
2019-06-27T10:17:41.231Z,32.40
2019-06-27T10:20:08.768Z,32.40
2019-06-27T10:22:35.477Z,32.60
2019-06-27T10:25:02.447Z,33.00
2019-06-27T10:27:29.168Z,32.80
2019-06-27T10:29:55.875Z,32.70
2019-06-27T10:32:22.596Z,33.10
2019-06-27T10:34:49.300Z,33.40
2019-06-27T10:37:16.037Z,33.40
2019-06-27T10:39:42.765Z,33.60
2019-06-27T10:42:09.579Z,33.30
2019-06-27T10:44:36.287Z,33.60
2019-06-27T10:47:03.000Z,33.70
2019-06-27T10:49:29.727Z,33.30
2019-06-27T10:51:57.931Z,33.40
2019-06-27T10:54:24.732Z,33.40
2019-06-27T10:56:51.605Z,33.60
2019-06-27T10:59:18.327Z,33.70
2019-06-27T11:01:45.060Z,33.80
2019-06-27T11:04:11.783Z,33.70
2019-06-27T11:06:38.604Z,33.60
2019-06-27T11:09:05.497Z,33.40
2019-06-27T11:11:32.328Z,33.60
2019-06-27T11:13:59.640Z,33.40
2019-06-27T11:16:26.655Z,33.40
2019-06-27T11:18:53.368Z,33.50
2019-06-27T11:21:20.074Z,33.40
2019-06-27T11:23:46.897Z,33.70
2019-06-27T11:26:13.597Z,33.10
2019-06-27T11:28:40.315Z,32.90
2019-06-27T11:31:07.042Z,32.90
2019-06-27T11:33:33.752Z,33.30
2019-06-27T11:36:00.583Z,33.70
2019-06-27T11:38:27.299Z,33.80
2019-06-27T11:40:53.991Z,34.10
2019-06-27T11:43:20.728Z,34.10
2019-06-27T11:45:47.444Z,33.70
2019-06-27T11:48:14.264Z,33.40
2019-06-27T11:50:40.963Z,33.50
2019-06-27T11:53:07.716Z,33.70
2019-06-27T11:55:34.420Z,33.70
2019-06-27T11:58:01.129Z,33.40
2019-06-27T12:00:28.116Z,33.20
2019-06-27T12:02:54.851Z,33.00
2019-06-27T12:05:21.552Z,33.20
2019-06-27T12:07:48.393Z,33.40
2019-06-27T12:10:15.750Z,33.40
2019-06-27T12:12:42.740Z,33.50
2019-06-27T12:15:09.944Z,33.50
2019-06-27T12:17:36.679Z,33.10
2019-06-27T12:20:05.220Z,32.80
2019-06-27T12:22:31.959Z,32.50
2019-06-27T12:24:58.760Z,32.50
2019-06-27T12:27:25.514Z,32.30
2019-06-27T12:29:52.323Z,32.30
2019-06-27T12:32:19.044Z,32.10
2019-06-27T12:34:45.752Z,32.00
2019-06-27T12:37:12.559Z,31.80
2019-06-27T12:39:39.272Z,31.40
2019-06-27T12:42:05.969Z,31.30
2019-06-27T12:44:32.702Z,31.10
2019-06-27T12:46:59.412Z,31.00
2019-06-27T12:49:44.434Z,30.80
2019-06-27T12:51:54.731Z,30.70
2019-06-27T12:54:21.441Z,30.50
2019-06-27T12:56:48.152Z,30.40
2019-06-27T12:59:14.981Z,30.40
2019-06-27T13:01:41.671Z,30.20
2019-06-27T13:04:22.403Z,30.30
2019-06-27T13:06:37.017Z,30.30
2019-06-27T13:09:04.590Z,30.30
2019-06-27T13:11:31.392Z,30.30
2019-06-27T13:13:58.122Z,30.30
2019-06-27T13:16:25.035Z,30.20
2019-06-27T13:18:51.749Z,30.30
2019-06-27T13:21:18.536Z,30.20
2019-06-27T13:23:48.841Z,30.30
2019-06-27T13:26:13.976Z,30.30
2019-06-27T13:28:40.808Z,30.30
2019-06-27T13:31:07.609Z,30.30
2019-06-27T13:33:34.310Z,30.30
2019-06-27T13:36:01.022Z,30.30
2019-06-27T13:38:27.905Z,30.40
2019-06-27T13:40:54.615Z,30.30
2019-06-27T13:43:21.357Z,30.20
2019-06-27T13:45:48.101Z,30.10
2019-06-27T13:48:14.830Z,30.20
2019-06-27T13:50:41.555Z,30.30
2019-06-27T13:53:08.247Z,30.30
2019-06-27T13:55:34.964Z,30.30
2019-06-27T13:58:01.664Z,30.20
2019-06-27T14:00:40.483Z,30.20
2019-06-27T14:03:07.235Z,30.10
2019-06-27T14:05:34.176Z,30.10
2019-06-27T14:08:00.875Z,30.10
2019-06-27T14:10:27.596Z,30.20
2019-06-27T14:12:54.303Z,30.20
2019-06-27T14:15:21.244Z,30.10
2019-06-27T14:17:48.052Z,30.10
2019-06-27T14:20:15.185Z,30.00
2019-06-27T14:22:42.042Z,30.10
2019-06-27T14:25:08.975Z,30.10
2019-06-27T14:27:35.807Z,30.10
2019-06-27T14:30:03.132Z,30.10
2019-06-27T14:32:29.995Z,30.20
2019-06-27T14:35:10.685Z,30.30
2019-06-27T14:37:25.504Z,30.30
2019-06-27T14:39:55.595Z,30.20
2019-06-27T14:42:21.256Z,30.20
2019-06-27T14:44:48.031Z,30.20
2019-06-27T14:47:14.849Z,30.20
2019-06-27T14:49:41.574Z,30.20
2019-06-27T14:52:08.437Z,30.30
2019-06-27T14:54:35.166Z,30.10
2019-06-27T14:57:01.892Z,30.30
2019-06-27T14:59:28.604Z,30.20
2019-06-27T15:01:55.427Z,30.30
2019-06-27T15:04:22.170Z,30.30
2019-06-27T15:06:48.921Z,30.30
2019-06-27T15:09:15.618Z,30.20
2019-06-27T15:11:42.359Z,30.30
2019-06-27T15:14:09.131Z,30.30
2019-06-27T15:16:36.031Z,30.20
2019-06-27T15:19:03.173Z,30.20
2019-06-27T15:21:29.901Z,30.20
2019-06-27T15:23:56.629Z,30.20
2019-06-27T15:26:23.376Z,30.20
2019-06-27T15:28:50.197Z,30.20
2019-06-27T15:31:17.168Z,30.20
2019-06-27T15:33:43.876Z,30.20
2019-06-27T15:36:10.629Z,30.20
2019-06-27T15:38:37.336Z,30.20
2019-06-27T15:41:04.100Z,30.20
2019-06-27T15:43:31.378Z,30.10
2019-06-27T15:45:58.332Z,30.20
2019-06-27T15:48:25.304Z,30.00
2019-06-27T15:50:52.292Z,30.00
2019-06-27T15:53:19.123Z,30.00
2019-06-27T15:55:46.110Z,30.10
2019-06-27T15:58:12.964Z,30.20
2019-06-27T16:00:39.744Z,30.10
2019-06-27T16:03:06.868Z,30.10
2019-06-27T16:05:33.778Z,30.00
2019-06-27T16:08:00.699Z,30.00
2019-06-27T16:10:27.615Z,30.10
2019-06-27T16:12:54.382Z,30.00
2019-06-27T16:15:21.201Z,30.00
2019-06-27T16:17:47.915Z,30.00
2019-06-27T16:20:15.654Z,30.00
2019-06-27T16:22:42.494Z,29.90
2019-06-27T16:25:09.395Z,29.90
2019-06-27T16:27:36.312Z,29.90
2019-06-27T16:30:03.864Z,29.90
2019-06-27T16:32:30.676Z,32.00
2019-06-27T16:34:57.488Z,30.00
2019-06-27T16:37:24.323Z,29.80
2019-06-27T16:39:51.063Z,29.80
2019-06-27T16:42:17.763Z,29.80
2019-06-27T16:44:44.660Z,29.70
2019-06-27T16:47:11.493Z,29.70
2019-06-27T16:49:38.345Z,29.70
2019-06-27T16:52:05.216Z,29.70
2019-06-27T16:54:32.023Z,29.70
2019-06-27T16:56:58.740Z,29.70
2019-06-27T16:59:25.592Z,29.60
2019-06-27T17:01:52.300Z,29.50
2019-06-27T17:04:19.040Z,29.50
2019-06-27T17:06:45.795Z,29.40
2019-06-27T17:09:12.741Z,29.30
2019-06-27T17:11:39.547Z,29.30
2019-06-27T17:14:06.390Z,29.40
2019-06-27T17:16:33.100Z,29.40
2019-06-27T17:18:59.824Z,29.30
2019-06-27T17:21:26.661Z,29.30
2019-06-27T17:23:53.385Z,29.20
2019-06-27T17:26:20.272Z,29.20
2019-06-27T17:28:47.111Z,29.30
2019-06-27T17:31:13.814Z,29.20
2019-06-27T17:33:40.513Z,29.20
2019-06-27T17:36:07.324Z,29.10
2019-06-27T17:38:34.080Z,29.00
2019-06-27T17:41:00.797Z,29.00
2019-06-27T17:43:27.508Z,28.90
2019-06-27T17:45:54.424Z,28.90
2019-06-27T17:48:21.255Z,28.70
2019-06-27T17:50:47.967Z,28.70
2019-06-27T17:53:14.812Z,28.60
2019-06-27T17:55:41.551Z,28.50
2019-06-27T17:58:08.259Z,28.50
2019-06-27T18:00:35.120Z,28.30
2019-06-27T18:03:02.040Z,28.30
2019-06-27T18:05:28.835Z,28.20
2019-06-27T18:07:55.561Z,28.20
2019-06-27T18:10:22.384Z,28.10
2019-06-27T18:12:49.206Z,28.00
2019-06-27T18:15:16.121Z,27.90
2019-06-27T18:17:42.832Z,27.90
2019-06-27T18:20:09.984Z,27.80
2019-06-27T18:22:36.823Z,27.80
2019-06-27T18:25:04.240Z,27.80
2019-06-27T18:27:31.101Z,27.70
2019-06-27T18:29:57.844Z,27.60
2019-06-27T18:32:24.640Z,27.50
2019-06-27T18:34:51.359Z,27.40
2019-06-27T18:37:29.188Z,27.40
2019-06-27T18:39:46.692Z,27.30
2019-06-27T18:42:13.516Z,27.20
2019-06-27T18:44:40.376Z,27.10
2019-06-27T18:47:07.103Z,27.00
2019-06-27T18:49:34.044Z,26.90
2019-06-27T18:52:01.011Z,26.90
2019-06-27T18:54:27.855Z,26.80
2019-06-27T18:56:54.567Z,26.80
2019-06-27T18:59:21.403Z,26.70
2019-06-27T19:01:48.193Z,26.60
2019-06-27T19:04:14.964Z,26.50
2019-06-27T19:06:41.693Z,26.50
2019-06-27T19:09:08.531Z,26.50
2019-06-27T19:11:35.503Z,26.40
2019-06-27T19:14:02.312Z,26.30
2019-06-27T19:16:29.141Z,26.20
2019-06-27T19:18:58.863Z,26.10
2019-06-27T19:21:37.693Z,26.00
2019-06-27T19:24:30.161Z,25.90
2019-06-27T19:26:57.272Z,25.90
2019-06-27T19:29:25.916Z,25.80
2019-06-27T19:31:54.653Z,25.70
2019-06-27T19:34:21.491Z,25.70
2019-06-27T19:36:48.508Z,25.60
2019-06-27T19:39:15.294Z,25.50
2019-06-27T19:41:42.099Z,25.50
2019-06-27T19:44:08.821Z,25.50
2019-06-27T19:46:35.634Z,25.40
2019-06-27T19:49:02.474Z,25.30
2019-06-27T19:51:29.308Z,25.30
2019-06-27T19:53:58.101Z,25.20
2019-06-27T19:56:25.074Z,25.20
2019-06-27T19:58:51.756Z,25.10
2019-06-27T20:01:18.658Z,25.10
2019-06-27T20:03:45.773Z,24.90
2019-06-27T20:06:12.590Z,24.90
2019-06-27T20:08:39.419Z,24.80
2019-06-27T20:11:06.328Z,24.70
2019-06-27T20:13:33.272Z,24.60
2019-06-27T20:16:00.072Z,24.60
2019-06-27T20:18:27.039Z,24.60
2019-06-27T20:20:54.616Z,24.50
2019-06-27T20:23:21.671Z,24.40
2019-06-27T20:25:48.497Z,24.30
2019-06-27T20:28:15.311Z,24.30
2019-06-27T20:30:42.117Z,24.20
2019-06-27T20:33:08.965Z,24.20
2019-06-27T20:35:35.863Z,24.20
2019-06-27T20:38:02.832Z,24.10
2019-06-27T20:40:29.757Z,24.10
2019-06-27T20:42:56.691Z,24.00
2019-06-27T20:45:23.611Z,24.00
2019-06-27T20:47:50.440Z,23.90
2019-06-27T20:50:17.872Z,23.90
2019-06-27T20:52:45.067Z,23.80
2019-06-27T20:55:12.029Z,23.80
2019-06-27T20:57:38.747Z,23.80
2019-06-27T21:00:06.173Z,23.70
2019-06-27T21:02:33.228Z,23.60
2019-06-27T21:05:00.020Z,23.60
2019-06-27T21:07:26.869Z,23.60
2019-06-27T21:09:53.599Z,23.50
2019-06-27T21:12:20.309Z,23.50
2019-06-27T21:14:47.147Z,23.40
2019-06-27T21:17:13.977Z,23.30
2019-06-27T21:19:40.716Z,23.30
2019-06-27T21:22:07.456Z,23.30
2019-06-27T21:24:34.443Z,23.20
2019-06-27T21:27:01.243Z,23.10
2019-06-27T21:29:27.971Z,23.10
2019-06-27T21:31:54.902Z,23.10
2019-06-27T21:34:21.618Z,23.00
2019-06-27T21:36:48.552Z,23.00
2019-06-27T21:39:15.471Z,22.90
2019-06-27T21:41:42.268Z,22.90
2019-06-27T21:44:09.346Z,22.90
2019-06-27T21:46:36.216Z,22.80
2019-06-27T21:49:03.136Z,22.80
2019-06-27T21:51:29.936Z,22.80
2019-06-27T21:53:56.680Z,22.70
2019-06-27T21:56:23.486Z,22.70
2019-06-27T21:58:50.303Z,22.60
2019-06-27T22:01:17.320Z,22.60
2019-06-27T22:03:44.243Z,22.60
2019-06-27T22:06:11.059Z,22.60
2019-06-27T22:08:37.874Z,22.50
2019-06-27T22:11:04.981Z,22.40
2019-06-27T22:13:31.814Z,22.30
2019-06-27T22:15:58.524Z,22.30
2019-06-27T22:18:25.357Z,22.30
2019-06-27T22:20:52.167Z,22.20
2019-06-27T22:23:18.879Z,22.10
2019-06-27T22:25:45.581Z,22.10
2019-06-27T22:30:39.252Z,22.00
2019-06-27T22:33:05.963Z,21.90
2019-06-27T22:35:32.780Z,21.90
2019-06-27T22:38:17.579Z,21.70
2019-06-27T22:41:02.757Z,21.70
2019-06-27T22:43:47.801Z,21.70
2019-06-27T22:46:32.888Z,21.60
2019-06-27T22:48:59.555Z,21.60
2019-06-27T22:51:46.452Z,21.50
2019-06-27T22:54:14.533Z,21.50
2019-06-27T22:56:41.243Z,21.40
2019-06-27T22:59:07.975Z,21.40
2019-06-27T23:01:34.909Z,21.30
2019-06-27T23:04:01.622Z,21.30
2019-06-27T23:06:28.348Z,21.20
2019-06-27T23:08:55.145Z,21.20
2019-06-27T23:11:21.976Z,21.20
2019-06-27T23:13:48.698Z,21.20
2019-06-27T23:16:15.431Z,21.20
2019-06-27T23:18:42.237Z,21.20
2019-06-27T23:21:08.952Z,21.20
2019-06-27T23:23:35.656Z,21.20
2019-06-27T23:26:02.372Z,21.10
2019-06-27T23:28:29.076Z,21.10
2019-06-27T23:30:55.779Z,21.10
2019-06-27T23:33:22.472Z,21.10
2019-06-27T23:35:49.217Z,21.00
2019-06-27T23:38:15.920Z,21.00
2019-06-27T23:40:42.649Z,21.00
2019-06-27T23:43:09.368Z,20.90
2019-06-27T23:45:36.487Z,20.90
2019-06-27T23:48:03.423Z,20.90
2019-06-27T23:50:30.159Z,20.80
2019-06-27T23:52:56.869Z,20.80
2019-06-27T23:55:23.589Z,20.80
2019-06-27T23:57:50.296Z,20.70
